Time;durP1;ratioP1;P1;durP2;ratioP2;P2;SDS_P1;SDS_P2;PMS_P1;PMS_P2;Temp;Humidity;BMP_temperature;BMP_pressure;BME280_temperature;BME280_humidity;BME280_pressure;Samples;Min_cycle;Max_cycle;Signal;HPM_P1;HPM_P2
2021/04/28 00:01:11;;;;;;;30.40;15.67;;;;;;;7.47;43.96;100182.06;1770828;79;23826;-84
2021/04/28 00:03:42;;;;;;;;;;;;;;;7.40;44.30;100183.55;1793458;78;21212;-78
2021/04/28 00:06:08;;;;;;;32.20;14.87;;;;;;;7.39;44.29;100181.88;1792472;78;20299;-79
2021/04/28 00:12:16;;;;;;;31.77;15.68;;;;;;;7.38;44.38;100180.24;1790908;78;21224;-83
2021/04/28 00:14:44;;;;;;;35.83;15.50;;;;;;;7.34;44.39;100178.34;1765636;78;21180;-79
2021/04/28 00:17:14;;;;;;;34.70;16.52;;;;;;;7.33;44.25;100177.16;1784688;78;21169;-83
2021/04/28 00:19:39;;;;;;;31.97;15.70;;;;;;;7.30;44.38;100179.60;1790598;78;21169;-86
2021/04/28 00:22:05;;;;;;;33.63;16.95;;;;;;;7.30;44.39;100178.75;1756835;78;21185;-80
2021/04/28 00:24:31;;;;;;;35.37;16.97;;;;;;;7.29;44.61;100177.11;1787116;78;22630;-81
2021/04/28 00:26:57;;;;;;;32.67;16.67;;;;;;;7.27;44.73;100175.08;1795312;78;20922;-78
2021/04/28 00:29:25;;;;;;;32.90;17.23;;;;;;;7.24;44.95;100174.03;1792364;78;21037;-84
2021/04/28 00:31:52;;;;;;;;;;;;;;;7.18;45.15;100174.92;1792381;78;21178;-81
2021/04/28 00:34:17;;;;;;;34.25;15.20;;;;;;;6.97;45.75;100174.16;1790879;78;21023;-81
2021/04/28 00:36:43;;;;;;;31.93;15.23;;;;;;;6.86;46.37;100169.00;1753959;78;23586;-80
2021/04/28 00:39:12;;;;;;;30.67;16.00;;;;;;;6.84;46.56;100167.83;1790218;78;20923;-81
2021/04/28 00:44:43;;;;;;;28.73;14.58;;;;;;;6.73;46.31;100166.11;1758158;80;20994;-78
2021/04/28 00:47:09;;;;;;;33.75;15.55;;;;;;;6.85;46.33;100169.95;1756084;78;21915;-84
2021/04/28 00:49:37;;;;;;;30.23;15.58;;;;;;;6.88;45.83;100165.76;1777662;79;21418;-80
2021/04/28 00:52:09;;;;;;;;;;;;;;;6.92;45.66;100168.48;1790987;78;21136;-83
2021/04/28 00:54:35;;;;;;;32.85;13.88;;;;;;;6.94;45.76;100167.86;1787065;78;20401;-88
2021/04/28 00:57:01;;;;;;;34.63;15.80;;;;;;;6.96;45.50;100171.17;1791657;78;21209;-80
2021/04/28 00:59:29;;;;;;;34.10;15.98;;;;;;;6.96;45.58;100171.17;1788423;78;21215;-83
2021/04/28 01:01:56;;;;;;;32.08;16.00;;;;;;;6.93;45.89;100170.12;1784207;78;21223;-81
2021/04/28 01:04:25;;;;;;;33.92;16.23;;;;;;;6.94;45.77;100169.98;1788420;78;21176;-81
2021/04/28 01:06:53;;;;;;;33.20;16.82;;;;;;;6.91;46.00;100169.43;1789959;78;21195;-84
2021/04/28 01:09:19;;;;;;;33.78;16.62;;;;;;;6.91;45.93;100175.99;1776164;78;21182;-82
2021/04/28 01:11:45;;;;;;;31.00;16.15;;;;;;;6.89;46.21;100173.99;1787013;78;22222;-80
2021/04/28 01:14:11;;;;;;;30.67;16.03;;;;;;;6.90;46.12;100169.07;1788170;78;25022;-80
2021/04/28 01:16:37;;;;;;;30.30;16.40;;;;;;;6.82;46.41;100171.04;1784430;79;22894;-86
2021/04/28 01:19:03;;;;;;;38.20;16.17;;;;;;;6.83;46.25;100168.28;1783437;79;26726;-88
2021/04/28 01:21:31;;;;;;;33.45;16.17;;;;;;;6.86;46.02;100162.44;1783522;79;21140;-80
2021/04/28 01:23:58;;;;;;;37.23;15.80;;;;;;;6.81;46.22;100167.59;1791551;79;21395;-82
2021/04/28 01:26:27;;;;;;;33.42;16.67;;;;;;;6.81;46.07;100166.28;1763198;79;21626;-82
2021/04/28 01:29:00;;;;;;;34.95;16.65;;;;;;;6.80;46.53;100163.30;1785192;78;21160;-81
2021/04/28 01:31:27;;;;;;;34.67;17.02;;;;;;;6.75;46.74;100160.25;1787663;79;22264;-78
2021/04/28 01:33:58;;;;;;;38.40;17.27;;;;;;;6.79;46.56;100163.42;1786913;79;21160;-79
2021/04/28 01:36:27;;;;;;;33.70;16.90;;;;;;;6.80;46.32;100159.36;1786976;79;21577;-86
2021/04/28 01:38:57;;;;;;;38.73;16.95;;;;;;;6.75;46.70;100162.87;1784794;79;20989;-82
2021/04/28 01:41:28;;;;;;;41.35;18.00;;;;;;;6.68;46.91;100152.56;1786405;79;21241;-78
2021/04/28 01:43:56;;;;;;;43.73;18.48;;;;;;;6.64;47.01;100153.78;1783041;79;22290;-87
2021/04/28 01:46:25;;;;;;;43.90;19.85;;;;;;;6.63;47.34;100154.27;1789697;78;21176;-82
2021/04/28 01:48:53;;;;;;;42.38;20.50;;;;;;;6.62;47.22;100149.97;1783970;78;21162;-78
2021/04/28 01:51:20;;;;;;;;;;;;;;;6.60;47.61;100148.43;1788460;79;21174;-85
2021/04/28 01:53:47;;;;;;;52.25;22.25;;;;;;;6.47;49.21;100149.47;1788362;79;20287;-79
2021/04/28 01:56:16;;;;;;;53.40;24.72;;;;;;;6.26;50.47;100149.95;1787897;78;21243;-80
2021/04/28 01:58:44;;;;;;;53.87;24.37;;;;;;;6.14;51.08;100145.73;1787795;79;21128;-79
2021/04/28 02:01:10;;;;;;;55.78;24.35;;;;;;;6.02;51.86;100145.80;1782051;79;21162;-81
2021/04/28 02:03:36;;;;;;;52.07;23.37;;;;;;;5.98;52.01;100147.03;1791144;79;22658;-82
2021/04/28 02:06:02;;;;;;;53.55;23.30;;;;;;;5.97;52.10;100147.98;1787554;78;21621;-80
2021/04/28 02:08:34;;;;;;;54.85;23.60;;;;;;;6.11;50.86;100143.73;1786022;79;21170;-78
2021/04/28 02:11:00;;;;;;;50.92;23.70;;;;;;;6.24;50.44;100142.70;1786872;78;21178;-79
2021/04/28 02:13:32;;;;;;;48.05;22.10;;;;;;;6.24;50.77;100137.47;1795637;78;21127;-79
2021/04/28 02:15:58;;;;;;;46.42;22.50;;;;;;;6.28;50.31;100140.19;1800249;78;21661;-78
2021/04/28 02:18:24;;;;;;;52.17;22.60;;;;;;;6.30;50.21;100135.64;1770395;78;21220;-80
2021/04/28 02:20:52;;;;;;;47.50;23.07;;;;;;;6.27;50.20;100130.66;1757109;78;21847;-81
2021/04/28 02:23:18;;;;;;;;;;;;;;;6.28;50.22;100133.64;1807893;78;21156;-79
2021/04/28 02:25:45;;;;;;;50.30;19.52;;;;;;;6.28;50.52;100132.33;1801566;78;21240;-83
2021/04/28 02:28:13;;;;;;;50.15;19.85;;;;;;;6.27;50.45;100138.03;1809854;78;21172;-80
2021/04/28 02:30:38;;;;;;;;;;;;;;;6.22;50.49;100134.15;1800282;78;21136;-79
2021/04/28 02:33:06;;;;;;;45.92;20.23;;;;;;;6.25;50.77;100131.27;1796750;78;20194;-79
2021/04/28 02:35:34;;;;;;;46.65;21.02;;;;;;;6.24;50.31;100129.59;1796870;78;21189;-80
2021/04/28 02:38:25;;;;;;;49.98;20.30;;;;;;;6.21;50.69;100122.81;1801239;78;21262;-80
2021/04/28 02:40:53;;;;;;;45.35;20.35;;;;;;;6.21;50.41;100129.86;1801314;78;21183;-79
2021/04/28 02:43:26;;;;;;;46.30;21.07;;;;;;;6.21;50.68;100129.86;1798955;78;21607;-79
2021/04/28 02:45:53;;;;;;;40.50;19.95;;;;;;;6.15;51.04;100133.81;1799078;78;21133;-80
2021/04/28 02:48:21;;;;;;;45.10;19.87;;;;;;;6.19;50.57;100131.78;1802260;78;21183;-81
2021/04/28 02:50:47;;;;;;;44.48;20.12;;;;;;;6.20;50.42;100132.11;1810316;78;21983;-82
2021/04/28 02:53:15;;;;;;;40.98;20.88;;;;;;;6.13;50.87;100126.56;1803694;78;21662;-83
2021/04/28 02:55:45;;;;;;;46.95;20.70;;;;;;;6.09;50.78;100128.62;1805288;78;21103;-81
2021/04/28 02:58:13;;;;;;;44.93;19.80;;;;;;;6.06;51.11;100124.94;1798308;78;21561;-79
2021/04/28 03:00:40;;;;;;;43.58;19.98;;;;;;;6.07;50.72;100131.83;1805019;78;21216;-84
2021/04/28 03:03:07;;;;;;;50.30;19.90;;;;;;;6.00;51.13;100128.07;1798028;78;21229;-82
2021/04/28 03:05:37;;;;;;;44.45;20.27;;;;;;;5.94;51.39;100131.98;1796685;78;21229;-80
2021/04/28 03:08:04;;;;;;;46.15;20.88;;;;;;;5.94;51.29;100133.78;1797500;78;21175;-82
2021/04/28 03:10:30;;;;;;;51.13;22.32;;;;;;;5.93;51.74;100136.05;1800439;78;21116;-85
2021/04/28 03:12:56;;;;;;;50.55;24.30;;;;;;;5.81;52.74;100127.42;1793991;78;21174;-85
2021/04/28 03:15:25;;;;;;;59.93;25.70;;;;;;;5.66;53.50;100121.64;1789890;78;21615;-87
2021/04/28 03:17:53;;;;;;;54.88;23.32;;;;;;;5.50;54.19;100126.44;1781586;79;21191;-78
2021/04/28 03:20:19;;;;;;;55.23;24.00;;;;;;;5.38;54.61;100134.34;1790684;78;21085;-81
2021/04/28 03:22:45;;;;;;;48.17;21.30;;;;;;;5.36;54.86;100137.56;1788576;78;22394;-81
2021/04/28 03:25:17;;;;;;;46.87;20.97;;;;;;;5.46;53.89;100131.59;1790682;78;22847;-79
2021/04/28 03:27:43;;;;;;;48.90;21.00;;;;;;;5.51;53.52;100140.72;1765808;78;21129;-80
2021/04/28 03:30:09;;;;;;;45.90;19.77;;;;;;;5.45;54.05;100132.54;1787219;78;20950;-80
2021/04/28 03:32:35;;;;;;;44.70;19.70;;;;;;;5.53;53.44;100130.12;1786912;78;21183;-82
2021/04/28 03:35:01;;;;;;;46.33;19.47;;;;;;;5.63;52.99;100134.98;1785810;79;26620;-81
2021/04/28 03:37:26;;;;;;;46.20;19.30;;;;;;;5.66;52.71;100130.80;1789930;78;24193;-83
2021/04/28 03:39:53;;;;;;;42.43;19.20;;;;;;;5.66;53.08;100127.36;1754529;80;21278;-80
2021/04/28 03:42:22;;;;;;;39.95;17.92;;;;;;;5.68;53.00;100130.19;1789191;78;21698;-78
2021/04/28 03:44:51;;;;;;;41.00;19.10;;;;;;;5.72;52.99;100134.72;1785539;78;21046;-81
2021/04/28 03:47:19;;;;;;;47.35;19.10;;;;;;;5.74;52.96;100131.00;1789370;78;21667;-80
2021/04/28 03:49:48;;;;;;;43.73;18.60;;;;;;;5.80;52.93;100138.03;1790211;78;21156;-81
2021/04/28 03:52:17;;;;;;;45.88;19.05;;;;;;;5.84;52.66;100142.04;1783028;79;22713;-79
2021/04/28 03:54:43;;;;;;;43.52;19.07;;;;;;;5.88;52.52;100142.16;1787483;78;22367;-79
2021/04/28 03:57:10;;;;;;;45.93;18.77;;;;;;;5.90;52.49;100145.02;1759279;80;21072;-83
2021/04/28 03:59:37;;;;;;;45.83;18.82;;;;;;;5.88;52.73;100147.39;1787738;79;21173;-80
2021/04/28 04:02:06;;;;;;;43.10;18.85;;;;;;;5.86;52.79;100144.08;1791490;78;21660;-80
2021/04/28 04:04:32;;;;;;;39.73;17.70;;;;;;;5.97;52.39;100149.30;1789709;78;21189;-80
2021/04/28 04:07:00;;;;;;;42.85;18.00;;;;;;;5.91;52.37;100143.21;1788861;78;21181;-80
2021/04/28 04:09:27;;;;;;;39.60;16.65;;;;;;;5.98;52.29;100149.66;1790493;78;21219;-80
2021/04/28 04:11:55;;;;;;;39.73;17.23;;;;;;;6.01;52.16;100153.34;1794032;78;21547;-80
2021/04/28 04:14:20;;;;;;;40.12;17.95;;;;;;;6.05;52.12;100148.66;1788509;78;21491;-82
2021/04/28 04:16:49;;;;;;;39.63;17.47;;;;;;;6.06;52.08;100148.53;1793009;78;21357;-79
2021/04/28 04:19:16;;;;;;;40.17;17.70;;;;;;;6.10;51.83;100157.78;1788976;78;21592;-81
2021/04/28 04:21:46;;;;;;;38.73;16.77;;;;;;;6.15;51.71;100157.89;1792094;78;21204;-79
2021/04/28 04:24:13;;;;;;;42.53;18.12;;;;;;;6.22;51.52;100155.95;1791506;78;21734;-80
2021/04/28 04:26:40;;;;;;;;;;;;;;;6.26;51.50;100157.83;1793003;78;21213;-80
2021/04/28 04:29:07;;;;;;;40.03;16.40;;;;;;;6.29;51.47;100160.19;1787044;78;21197;-80
2021/04/28 04:31:35;;;;;;;36.30;16.65;;;;;;;6.33;51.51;100160.30;1791909;78;21216;-80
2021/04/28 04:34:00;;;;;;;;;;;;;;;6.30;51.86;100156.63;1775318;80;21622;-80
2021/04/28 04:36:27;;;;;;;39.38;17.32;;;;;;;6.34;51.54;100160.66;1786400;78;20225;-80
2021/04/28 04:38:54;;;;;;;44.87;18.50;;;;;;;6.33;51.48;100165.55;1789640;78;21180;-80
2021/04/28 04:41:20;;;;;;;40.98;17.75;;;;;;;6.35;51.24;100166.23;1791302;78;22497;-83
2021/04/28 04:43:46;;;;;;;36.65;17.87;;;;;;;6.50;50.93;100172.00;1785200;78;21255;-81
2021/04/28 04:46:12;;;;;;;35.23;18.73;;;;;;;6.50;50.75;100172.00;1792577;78;21223;-80
2021/04/28 04:48:38;;;;;;;35.98;18.52;;;;;;;6.49;50.65;100174.75;1792273;78;21388;-80
2021/04/28 04:51:06;;;;;;;42.20;17.50;;;;;;;6.57;50.49;100167.05;1787302;78;25194;-80
2021/04/28 04:53:32;;;;;;;37.28;18.60;;;;;;;6.62;50.31;100170.14;1787437;78;21216;-81
2021/04/28 04:55:58;;;;;;;35.03;17.92;;;;;;;6.69;50.39;100179.14;1792809;78;21428;-81
2021/04/28 04:58:24;;;;;;;34.63;18.40;;;;;;;6.78;50.26;100175.73;1792184;78;22840;-88
2021/04/28 05:00:52;;;;;;;40.40;18.98;;;;;;;6.81;50.12;100172.84;1788225;78;27213;-80
2021/04/28 05:03:18;;;;;;;35.60;17.50;;;;;;;6.89;50.09;100168.25;1787477;78;21136;-80
2021/04/28 05:05:44;;;;;;;38.02;18.37;;;;;;;6.90;49.96;100174.32;1780880;78;22225;-87
2021/04/28 05:08:09;;;;;;;36.30;18.50;;;;;;;6.95;49.91;100166.91;1790281;78;25322;-80
2021/04/28 05:10:35;;;;;;;32.10;17.67;;;;;;;7.05;49.84;100173.00;1789581;78;20908;-83
2021/04/28 05:13:01;;;;;;;34.30;17.37;;;;;;;7.12;49.77;100164.95;1787137;78;28014;-80
2021/04/28 05:15:27;;;;;;;36.58;17.98;;;;;;;7.18;49.71;100168.36;1782313;80;26728;-81
2021/04/28 05:17:57;;;;;;;34.95;17.20;;;;;;;7.25;49.69;100169.14;1781773;79;21265;-83
2021/04/28 05:20:22;;;;;;;;;;;;;;;7.25;49.43;100174.39;1782399;79;21766;-81
2021/04/28 05:22:47;;;;;;;;;;;;;;;7.32;49.54;100167.65;1781948;79;20290;-81
2021/04/28 05:25:15;;;;;;;33.05;16.57;;;;;;;7.39;49.47;100174.00;1780692;80;20234;-82
2021/04/28 05:27:41;;;;;;;34.67;16.55;;;;;;;7.46;49.22;100164.62;1778337;79;21626;-80
2021/04/28 05:30:11;;;;;;;27.95;15.38;;;;;;;7.43;49.16;100170.16;1782064;79;22766;-83
2021/04/28 05:32:39;;;;;;;35.52;15.75;;;;;;;7.56;48.94;100167.27;1779199;79;21070;-81
2021/04/28 05:35:07;;;;;;;30.02;14.93;;;;;;;7.57;49.08;100168.08;1764222;80;21056;-82
2021/04/28 05:37:33;;;;;;;33.18;16.42;;;;;;;7.60;48.56;100170.44;1780110;80;21547;-81
2021/04/28 05:39:59;;;;;;;34.08;16.23;;;;;;;7.73;48.56;100171.02;1750223;80;27418;-81
2021/04/28 05:42:28;;;;;;;33.45;15.68;;;;;;;7.82;48.42;100167.56;1750070;80;21852;-80
2021/04/28 05:44:53;;;;;;;30.23;16.27;;;;;;;7.83;48.06;100169.23;1780313;80;21146;-80
2021/04/28 05:47:19;;;;;;;28.38;15.25;;;;;;;8.00;47.94;100162.92;1782453;79;21185;-80
2021/04/28 05:49:45;;;;;;;27.50;15.08;;;;;;;8.08;47.66;100156.50;1782120;79;28319;-80
2021/04/28 05:52:11;;;;;;;29.57;15.08;;;;;;;8.23;47.41;100160.36;1783388;79;21145;-81
2021/04/28 05:54:37;;;;;;;30.20;15.10;;;;;;;8.38;46.82;100163.36;1781897;80;21942;-82
2021/04/28 05:57:04;;;;;;;30.57;14.98;;;;;;;8.53;46.51;100161.63;1781545;79;21134;-82
2021/04/28 05:59:30;;;;;;;29.70;14.80;;;;;;;8.66;46.24;100154.75;1777601;80;21647;-79
2021/04/28 06:01:56;;;;;;;28.57;14.63;;;;;;;8.69;45.84;100151.83;1779856;80;21166;-79
2021/04/28 06:04:23;;;;;;;27.62;14.05;;;;;;;8.76;45.61;100156.84;1769562;79;27569;-82
2021/04/28 06:06:52;;;;;;;28.70;15.32;;;;;;;8.87;45.61;100163.27;1782746;79;21184;-82
2021/04/28 06:09:18;;;;;;;30.27;14.90;;;;;;;8.96;45.63;100158.91;1778693;79;21098;-82
2021/04/28 06:11:47;;;;;;;27.05;14.68;;;;;;;9.09;45.49;100155.94;1780527;80;25416;-82
2021/04/28 06:14:13;;;;;;;26.55;14.60;;;;;;;9.16;45.37;100160.97;1769940;79;21192;-83
2021/04/28 06:16:40;;;;;;;28.12;14.53;;;;;;;9.29;45.13;100164.09;1754067;80;26854;-82
2021/04/28 06:19:10;;;;;;;;;;;;;;;9.36;44.83;100160.88;1773659;79;22235;-84
2021/04/28 06:21:40;;;;;;;23.45;12.63;;;;;;;9.44;44.81;100167.05;1729555;80;20320;-81
2021/04/28 06:24:09;;;;;;;23.00;12.80;;;;;;;9.53;44.76;100161.38;1759783;80;21081;-80
2021/04/28 06:26:36;;;;;;;24.80;13.15;;;;;;;9.52;44.02;100157.08;1759476;80;21187;-79
2021/04/28 06:29:03;;;;;;;28.90;12.88;;;;;;;9.67;43.85;100159.54;1760473;79;21184;-81
2021/04/28 06:31:28;;;;;;;25.95;12.58;;;;;;;9.75;43.62;100162.75;1759556;80;21260;-81
2021/04/28 06:33:54;;;;;;;26.65;13.43;;;;;;;9.82;43.14;100162.96;1753410;80;27076;-79
2021/04/28 06:36:20;;;;;;;24.02;12.78;;;;;;;9.88;43.37;100157.08;1757978;80;26566;-79
2021/04/28 06:38:48;;;;;;;23.25;12.50;;;;;;;9.91;42.93;100153.33;1757686;80;29489;-81
2021/04/28 06:41:15;;;;;;;25.72;12.98;;;;;;;10.05;43.13;100150.98;1756830;79;21218;-80
2021/04/28 06:43:40;;;;;;;27.95;12.95;;;;;;;10.15;43.00;100150.07;1764098;80;21240;-82
2021/04/28 06:46:11;;;;;;;23.80;12.07;;;;;;;10.22;42.53;100148.45;1759503;80;27110;-79
2021/04/28 06:48:38;;;;;;;21.55;11.73;;;;;;;10.30;42.53;100145.89;1759741;79;21171;-80
2021/04/28 06:51:05;;;;;;;21.20;12.13;;;;;;;10.44;42.43;100143.69;1758774;80;21234;-82
2021/04/28 06:53:31;;;;;;;19.90;11.18;;;;;;;10.51;41.75;100135.48;1763383;80;21128;-83
2021/04/28 06:56:01;;;;;;;21.23;11.45;;;;;;;10.48;40.89;100139.26;1760025;80;21216;-78
2021/04/28 06:58:30;;;;;;;20.30;11.85;;;;;;;10.56;41.00;100137.16;1768077;79;21664;-80
2021/04/28 07:00:55;;;;;;;21.33;11.22;;;;;;;10.65;40.93;100137.55;1762393;79;21133;-77
2021/04/28 07:03:21;;;;;;;23.02;12.05;;;;;;;10.71;41.03;100134.78;1757658;80;28484;-82
2021/04/28 07:05:48;;;;;;;19.95;11.25;;;;;;;10.77;40.37;100133.64;1760793;79;27015;-85
2021/04/28 07:08:14;;;;;;;20.48;10.88;;;;;;;10.86;39.45;100127.92;1761931;80;21937;-83
2021/04/28 07:10:42;;;;;;;21.37;11.08;;;;;;;11.05;39.44;100129.97;1759383;80;28132;-82
2021/04/28 07:13:07;;;;;;;;;;;;;;;11.13;38.90;100129.48;1768685;79;21193;-82
2021/04/28 07:15:36;;;;;;;19.30;10.10;;;;;;;11.27;38.62;100129.88;1779497;78;20559;-78
2021/04/28 07:18:03;;;;;;;17.65;10.28;;;;;;;11.30;38.57;100130.88;1785192;78;21157;-79
2021/04/28 07:20:29;;;;;;;19.40;9.57;;;;;;;11.27;38.68;100131.20;1787919;78;21174;-80
2021/04/28 07:22:58;;;;;;;17.82;9.40;;;;;;;11.30;38.13;100133.52;1789114;78;27135;-82
2021/04/28 07:25:26;;;;;;;18.23;9.55;;;;;;;11.44;38.52;100134.20;1791291;78;21212;-82
2021/04/28 07:27:51;;;;;;;;;;;;;;;11.42;37.99;100137.98;1786661;78;21768;-81
2021/04/28 07:30:19;;;;;;;16.07;8.78;;;;;;;11.55;37.71;100132.25;1783837;78;20663;-83
2021/04/28 07:32:47;;;;;;;16.05;9.15;;;;;;;11.61;37.44;100136.89;1795681;78;21235;-79
2021/04/28 07:35:15;;;;;;;14.63;8.58;;;;;;;11.66;37.25;100131.92;1784411;79;21189;-80
2021/04/28 07:37:41;;;;;;;16.77;9.05;;;;;;;11.70;36.44;100134.59;1788034;78;21123;-82
2021/04/28 07:40:11;;;;;;;14.97;8.63;;;;;;;11.78;37.03;100133.26;1790878;78;21148;-81
2021/04/28 07:42:36;;;;;;;15.03;8.08;;;;;;;11.86;35.79;100128.47;1785456;78;21875;-80
2021/04/28 07:45:04;;;;;;;14.53;8.00;;;;;;;11.93;35.58;100129.50;1785021;78;21096;-80
2021/04/28 07:47:32;;;;;;;14.40;7.12;;;;;;;11.99;34.63;100117.41;1793226;79;21627;-77
2021/04/28 07:49:58;;;;;;;15.30;7.08;;;;;;;12.01;33.30;100115.44;1797654;78;21046;-81
2021/04/28 07:52:25;;;;;;;11.68;7.08;;;;;;;12.04;33.34;100119.05;1778921;78;21155;-78
2021/04/28 07:54:53;;;;;;;13.10;7.10;;;;;;;12.09;33.01;100114.11;1794447;78;21190;-78
2021/04/28 07:57:23;;;;;;;13.20;7.17;;;;;;;12.19;33.54;100113.92;1778862;78;21205;-81
2021/04/28 07:59:51;;;;;;;15.05;7.25;;;;;;;12.22;33.16;100117.55;1768388;79;21652;-79
2021/04/28 08:02:16;;;;;;;;;;;;;;;12.27;32.99;100113.08;1789515;78;21161;-77
2021/04/28 08:04:43;;;;;;;11.00;6.72;;;;;;;12.35;32.35;100110.41;1783935;78;20549;-81
2021/04/28 08:07:09;;;;;;;9.30;6.35;;;;;;;12.31;32.13;100111.25;1787434;78;21605;-78
2021/04/28 08:09:36;;;;;;;14.07;7.47;;;;;;;12.31;32.14;100114.41;1788013;78;22179;-78
2021/04/28 08:12:07;;;;;;;10.78;6.92;;;;;;;12.41;32.27;100106.27;1790680;78;21725;-80
2021/04/28 08:14:33;;;;;;;11.38;7.08;;;;;;;12.59;32.04;100100.77;1756334;78;21307;-80
2021/04/28 08:17:00;;;;;;;15.88;7.70;;;;;;;12.60;31.58;100102.41;1795027;78;20934;-86
2021/04/28 08:19:26;;;;;;;13.83;6.70;;;;;;;12.66;31.75;100103.89;1801059;78;21527;-80
2021/04/28 08:21:54;;;;;;;10.00;6.25;;;;;;;12.75;30.95;100101.55;1771733;78;21044;-78
2021/04/28 08:24:24;;;;;;;13.20;6.78;;;;;;;12.99;30.65;100098.94;1798434;78;21163;-78
2021/04/28 08:26:50;;;;;;;9.93;6.85;;;;;;;12.97;30.23;100095.64;1792830;78;21602;-81
2021/04/28 08:29:16;;;;;;;18.15;7.05;;;;;;;13.10;30.95;100088.78;1794550;78;21873;-82
2021/04/28 08:31:45;;;;;;;12.43;6.60;;;;;;;12.97;30.90;100090.34;1776011;78;22429;-80
2021/04/28 08:34:13;;;;;;;14.20;6.87;;;;;;;13.05;30.22;100100.89;1794517;78;22032;-81
2021/04/28 08:36:39;;;;;;;11.20;6.65;;;;;;;13.13;30.06;100092.91;1793249;78;21193;-83
2021/04/28 08:39:08;;;;;;;9.43;5.83;;;;;;;13.23;30.09;100096.16;1775744;78;21213;-87
2021/04/28 08:41:37;;;;;;;12.45;6.62;;;;;;;13.15;29.79;100094.88;1796583;78;21223;-84
2021/04/28 08:44:07;;;;;;;9.43;6.17;;;;;;;13.25;29.49;100091.52;1799431;78;21170;-80
2021/04/28 08:46:35;;;;;;;13.38;6.12;;;;;;;13.22;29.44;100083.91;1790212;78;21214;-80
2021/04/28 08:49:03;;;;;;;13.62;7.03;;;;;;;13.18;29.64;100079.95;1792011;78;21440;-81
2021/04/28 08:51:31;;;;;;;;;;;;;;;13.03;29.54;100090.97;1800851;78;21184;-78
2021/04/28 08:53:59;;;;;;;9.93;5.78;;;;;;;13.14;30.15;100084.45;1795469;78;20314;-89
2021/04/28 08:56:26;;;;;;;12.73;6.53;;;;;;;13.19;29.84;100080.29;1793783;78;21136;-81
2021/04/28 08:58:55;;;;;;;11.15;5.92;;;;;;;13.22;30.01;100075.96;1794134;78;21829;-82
2021/04/28 09:01:33;;;;;;;10.90;6.33;;;;;;;13.15;29.73;100074.19;1803424;78;21159;-82
2021/04/28 09:04:01;;;;;;;13.20;6.53;;;;;;;13.25;30.15;100075.61;1773341;78;21216;-82
2021/04/28 09:06:37;;;;;;;11.28;6.40;;;;;;;13.36;30.28;100071.77;1798337;78;21181;-83
2021/04/28 09:09:07;;;;;;;13.70;6.80;;;;;;;13.38;30.00;100082.20;1775688;78;21187;-84
2021/04/28 09:11:44;;;;;;;14.05;6.87;;;;;;;13.40;30.26;100074.87;1784707;78;21223;-80
2021/04/28 09:14:20;;;;;;;12.83;6.47;;;;;;;13.48;30.32;100073.48;1781027;78;21267;-82
2021/04/28 09:16:59;;;;;;;10.28;6.42;;;;;;;13.48;29.78;100072.16;1800143;78;21174;-82
2021/04/28 09:19:31;;;;;;;10.65;6.35;;;;;;;13.52;29.79;100068.16;1799033;78;21634;-85
2021/04/28 09:22:02;;;;;;;11.45;6.08;;;;;;;13.63;29.48;100067.73;1799364;78;21219;-81
2021/04/28 09:24:35;;;;;;;15.78;7.10;;;;;;;13.69;29.34;100062.70;1791270;78;21251;-80
2021/04/28 09:27:01;;;;;;;12.25;6.60;;;;;;;13.63;29.76;100069.05;1794290;78;21584;-79
2021/04/28 09:29:29;;;;;;;11.03;6.70;;;;;;;13.75;29.89;100059.34;1789610;78;21200;-79
2021/04/28 09:32:10;;;;;;;11.83;7.10;;;;;;;13.74;29.41;100057.70;1797112;78;21203;-84
2021/04/28 09:34:40;;;;;;;11.83;6.35;;;;;;;13.70;29.65;100057.73;1794137;78;21172;-84
2021/04/28 09:37:17;;;;;;;14.90;7.17;;;;;;;13.90;29.67;100052.74;1795539;78;21899;-77
2021/04/28 09:39:51;;;;;;;12.13;6.85;;;;;;;14.06;29.34;100046.45;1799949;78;21437;-81
2021/04/28 09:42:21;;;;;;;12.25;7.20;;;;;;;14.12;29.35;100042.58;1795108;78;21650;-79
2021/04/28 09:44:49;;;;;;;14.80;7.33;;;;;;;14.11;29.42;100038.78;1804508;78;21231;-78
2021/04/28 09:47:19;;;;;;;;;;;;;;;14.08;28.98;100037.30;1794576;78;21156;-83
2021/04/28 09:49:55;;;;;;;11.35;6.78;;;;;;;14.06;29.15;100038.00;1791067;78;21139;-84
2021/04/28 09:52:36;;;;;;;13.30;6.60;;;;;;;14.14;29.52;100037.09;1773562;78;21622;-78
2021/04/28 09:55:12;;;;;;;12.30;7.00;;;;;;;14.18;29.19;100030.39;1795037;78;21534;-82
2021/04/28 09:57:47;;;;;;;13.72;6.80;;;;;;;14.24;29.44;100024.34;1776920;78;21172;-81
2021/04/28 10:00:16;;;;;;;13.30;6.62;;;;;;;14.35;29.48;100021.22;1794171;78;21171;-83
2021/04/28 10:02:42;;;;;;;11.90;6.60;;;;;;;14.41;29.75;100015.69;1797888;78;21267;-85
2021/04/28 10:05:20;;;;;;;15.95;7.15;;;;;;;14.40;29.37;100014.53;1798186;78;21021;-83
2021/04/28 10:07:48;;;;;;;11.97;6.95;;;;;;;14.44;29.49;100010.52;1791349;78;21176;-83
2021/04/28 10:10:18;;;;;;;13.00;6.65;;;;;;;14.48;29.15;100006.45;1792054;78;21149;-82
2021/04/28 10:12:44;;;;;;;12.40;6.60;;;;;;;14.39;28.41;100007.56;1797011;78;21646;-82
2021/04/28 10:15:12;;;;;;;13.95;6.60;;;;;;;14.45;28.69;99998.86;1793508;78;22226;-83
2021/04/28 10:17:39;;;;;;;12.10;6.45;;;;;;;14.38;28.75;99996.64;1786799;78;21642;-84
2021/04/28 10:20:09;;;;;;;;;;;;;;;14.47;28.64;100005.64;1790161;78;21177;-89
2021/04/28 10:22:35;;;;;;;10.90;6.05;;;;;;;14.48;28.21;100003.80;1788299;78;20612;-84
2021/04/28 10:25:04;;;;;;;14.40;6.83;;;;;;;14.43;27.98;99993.73;1786845;78;21048;-87
2021/04/28 10:27:29;;;;;;;10.70;6.20;;;;;;;14.50;28.36;99987.19;1791835;78;21351;-84
2021/04/28 10:29:55;;;;;;;11.10;6.20;;;;;;;14.45;28.48;99982.92;1789877;78;20996;-83
2021/04/28 10:32:23;;;;;;;12.58;5.95;;;;;;;14.46;27.95;99992.55;1790937;78;20935;-85
2021/04/28 10:35:04;;;;;;;;;;;;;;;14.61;28.29;99992.05;1789428;78;21184;-82
2021/04/28 10:37:36;;;;;;;13.88;5.85;;;;;;;14.60;28.22;99985.08;1792161;78;20283;-82
2021/04/28 10:40:13;;;;;;;9.45;6.28;;;;;;;14.68;28.14;99988.98;1789164;78;21033;-85
2021/04/28 10:42:41;;;;;;;11.57;6.28;;;;;;;14.82;27.87;99983.79;1785160;79;21193;-84
2021/04/28 10:45:11;;;;;;;13.75;7.17;;;;;;;14.97;28.09;99981.91;1795308;78;21612;-82
2021/04/28 10:47:42;;;;;;;13.13;6.70;;;;;;;15.05;27.86;99984.44;1794126;78;21654;-85
2021/04/28 10:50:22;;;;;;;10.70;5.80;;;;;;;15.18;27.83;99977.59;1754751;78;21226;-84
2021/04/28 10:53:00;;;;;;;12.73;6.20;;;;;;;15.27;28.04;99976.45;1793603;78;21227;-81
2021/04/28 10:55:59;;;;;;;12.37;5.70;;;;;;;15.43;27.03;99960.23;1797042;78;21088;-80
2021/04/28 10:58:35;;;;;;;11.78;5.78;;;;;;;15.48;26.33;99964.97;1790121;78;21573;-82
2021/04/28 11:01:07;;;;;;;10.72;6.33;;;;;;;15.51;26.54;99963.78;1759507;78;21157;-82
2021/04/28 11:03:50;;;;;;;10.10;5.42;;;;;;;15.57;26.58;99951.03;1788147;78;21093;-82
2021/04/28 11:06:29;;;;;;;10.53;5.95;;;;;;;15.63;26.12;99958.23;1791113;78;21213;-84
2021/04/28 11:09:02;;;;;;;11.78;5.62;;;;;;;15.66;26.04;99953.02;1791849;78;21912;-83
2021/04/28 11:11:42;;;;;;;11.57;5.62;;;;;;;15.76;26.29;99955.65;1792509;78;21073;-80
2021/04/28 11:14:20;;;;;;;9.75;5.72;;;;;;;15.84;26.18;99949.38;1789352;78;21195;-82
2021/04/28 11:17:07;;;;;;;11.50;5.87;;;;;;;15.74;25.65;99945.71;1794502;78;21104;-83
2021/04/28 11:19:35;;;;;;;10.35;6.05;;;;;;;15.76;25.50;99962.30;1786746;78;22418;-85
2021/04/28 11:22:25;;;;;;;10.20;6.12;;;;;;;15.88;25.93;99955.13;1792770;78;21166;-84
2021/04/28 11:25:04;;;;;;;11.65;6.10;;;;;;;15.85;25.95;99943.53;1754927;78;21068;-83
2021/04/28 11:28:00;;;;;;;12.82;6.22;;;;;;;15.90;26.20;99938.47;1774534;78;21094;-83
2021/04/28 11:30:37;;;;;;;16.87;6.60;;;;;;;15.97;26.06;99932.16;1788992;78;21779;-84
2021/04/28 11:33:30;;;;;;;11.63;6.10;;;;;;;16.01;25.59;99937.91;1789650;78;21157;-84
2021/04/28 11:36:07;;;;;;;16.45;6.50;;;;;;;16.00;26.08;99926.92;1786237;78;21614;-84